Terminal Aerodrome Forecast
Issued by NWS

Home | Current Version | Previous Version | Text Only | Print | Product List | Glossary Off
Versions: 1 2 3 4 5 6 7 8 9 10 11 12 13 14 15 16 17 18 19 20 21 22 23

171
FTUS43 KGRB 141120
TAFCWA
TAF
KCWA 141120Z 1412/1512 15003KT P6SM SCT040 BKN090
      TEMPO 1412/1416 -SHRA BKN040
     FM141600 14004KT P6SM SCT035 BKN060
      TEMPO 1420/1424 2SM -TSRA BKN025CB
     FM150000 07003KT P6SM -SHRA OVC045
     FM150500 05004KT P6SM BKN024
     FM150800 04003KT P6SM BKN016=

USA.gov is the U.S. government's official web portal to all federal, state and local government web resources and services.